首页
METAR-TAF:

METAR-TAF

机场 :

Fort Collins-Loveland Municipal Airport

科林斯堡 / Loveland, 科羅拉多州, 美国

纬度: 40-27N, 经度: 105-01W, 海拔: 1529米

当前天气观测

该预报发布于33分钟前的15:56 UTC
风速15节,风向北转西北,有时为27节阵风
温度 2°C
湿度 44%
气压 1013 hPa
能見度: 16.1公里
天空无云

METAR: KFNL 171556Z AUTO 33015G27KT 10SM CLR 02/M09 A2990 RMK AO2 PK WND 33027/1554 SLP132 T00171089 FZRANO

时间: 09:29 (16:29 UTC)


TAF: 丢失

超过4000个机场的气象观测和天气预报(METAR&TAF报告)。

可查询的气象台以黄色和红色小点在地图上表示。

将鼠标移到小点上方,可查看气象台名称。

然后点击查看天气观测和预报。

如需切换地图:点击带黑十字的绿色按钮放大地图;点击带横线的绿色按钮缩小地图;或者点击绿色箭头查看邻近地区的地图。


METAR-TAF: